HE21 weather

Ras Shukhayr New Airport
Red Sea Governorate, Egypt

Public forecast

Using degrees Celsius for public forecast. Weather courtesy of forecast.io.

METAR (pilot weather report)

Closest report is El Tor Airport, 23.3 nm (43.1 km) E. Retrieved 2019/04/26 09:00 UTC (17 minutes ago):

HETR 260900Z 30017KT CAVOK 24/17 Q1012

TAF (pilot weather forecast)

Closest forecast is El Tor Airport, 23.3 nm (43.1 km) E. Retrieved 2019/04/26 06:00 UTC (3 hours ago):

TAF HETR 260500Z 2606/2712 31010G20KT CAVOK